createdAt,value
2019-01-17T00:02:17.453Z,95434.62
2019-01-17T00:05:04.127Z,95437.34
2019-01-17T00:07:50.825Z,95428.51
2019-01-17T00:10:36.045Z,95435.50
2019-01-17T00:13:38.091Z,95427.96
2019-01-17T00:16:23.500Z,95427.84
2019-01-17T00:19:18.969Z,95426.59
2019-01-17T00:22:08.137Z,95419.68
2019-01-17T00:25:00.594Z,95420.19
2019-01-17T00:27:59.134Z,95421.38
2019-01-17T00:30:48.542Z,95428.80
2019-01-17T00:33:30.006Z,95429.74
2019-01-17T00:36:22.138Z,95419.80
2019-01-17T00:38:59.988Z,95429.98
2019-01-17T00:41:45.126Z,95430.60
2019-01-17T00:44:46.549Z,95424.62
2019-01-17T00:47:43.260Z,95428.89
2019-01-17T00:50:28.504Z,95424.62
2019-01-17T00:53:07.079Z,95415.26
2019-01-17T00:56:01.752Z,95412.61
2019-01-17T00:58:42.530Z,95415.77
2019-01-17T01:01:38.452Z,95418.09
2019-01-17T01:04:40.170Z,95416.77
2019-01-17T01:07:24.696Z,95413.12
2019-01-17T01:10:26.409Z,95418.33
2019-01-17T01:13:18.346Z,95415.30
2019-01-17T01:16:21.195Z,95408.58
2019-01-17T01:18:58.778Z,95416.12
2019-01-17T01:21:40.310Z,95424.05
2019-01-17T01:24:19.355Z,95411.84
2019-01-17T01:27:08.207Z,95414.56
2019-01-17T01:29:56.978Z,95425.13
2019-01-17T01:32:41.122Z,95418.75
2019-01-17T01:35:33.810Z,95416.30
2019-01-17T01:38:26.237Z,95410.40
2019-01-17T01:41:27.979Z,95417.39
2019-01-17T01:44:07.835Z,95416.15
2019-01-17T01:47:03.282Z,95415.52
2019-01-17T01:49:49.971Z,95417.85
2019-01-17T01:52:33.165Z,95419.68
2019-01-17T01:55:00.246Z,95418.05
2019-01-17T01:57:27.265Z,95417.23
2019-01-17T01:59:54.316Z,95423.45
2019-01-17T02:02:21.357Z,95411.56
2019-01-17T02:04:48.405Z,95419.48
2019-01-17T02:07:15.484Z,95413.89
2019-01-17T02:09:42.543Z,95412.69
2019-01-17T02:12:09.591Z,95409.16
2019-01-17T02:14:36.743Z,95413.12
2019-01-17T02:17:03.777Z,95406.82
2019-01-17T02:19:30.907Z,95408.45
2019-01-17T02:21:57.953Z,95410.91
2019-01-17T02:24:28.535Z,95406.13
2019-01-17T02:26:53.933Z,95392.02
2019-01-17T02:29:20.986Z,95403.41
2019-01-17T02:31:48.028Z,95400.57
2019-01-17T02:34:15.083Z,95404.53
2019-01-17T02:36:42.126Z,95398.71
2019-01-17T02:39:09.169Z,95408.89
2019-01-17T02:41:36.227Z,95408.00
2019-01-17T02:44:03.260Z,95405.36
2019-01-17T02:46:30.314Z,95405.66
2019-01-17T02:48:57.355Z,95399.38
2019-01-17T02:51:24.392Z,95406.17
2019-01-17T02:53:51.419Z,95403.22
2019-01-17T02:56:18.478Z,95405.55
2019-01-17T02:58:45.512Z,95403.92
2019-01-17T03:01:12.542Z,95402.48
2019-01-17T03:03:39.585Z,95400.95
2019-01-17T03:06:06.642Z,95403.67
2019-01-17T03:08:33.676Z,95411.48
2019-01-17T03:11:00.726Z,95410.13
2019-01-17T03:13:27.788Z,95402.26
2019-01-17T03:15:54.826Z,95406.87
2019-01-17T03:18:21.848Z,95417.72
2019-01-17T03:20:48.890Z,95416.05
2019-01-17T03:23:16.234Z,95421.89
2019-01-17T03:25:43.288Z,95416.09
2019-01-17T03:28:10.366Z,95419.48
2019-01-17T03:30:37.422Z,95416.28
2019-01-17T03:33:04.464Z,95420.22
2019-01-17T03:35:31.510Z,95417.52
2019-01-17T03:37:58.537Z,95417.27
2019-01-17T03:40:25.567Z,95429.64
2019-01-17T03:42:52.627Z,95421.63
2019-01-17T03:45:19.673Z,95424.55
2019-01-17T03:47:46.716Z,95432.19
2019-01-17T03:50:14.328Z,95432.19
2019-01-17T03:52:41.427Z,95424.01
2019-01-17T03:55:10.039Z,95424.01
2019-01-17T03:57:37.073Z,95432.33
2019-01-17T04:00:06.432Z,95440.17
2019-01-17T04:02:33.471Z,95437.09
2019-01-17T04:05:00.731Z,95436.64
2019-01-17T04:07:27.773Z,95424.55
2019-01-17T04:09:54.815Z,95424.55
2019-01-17T04:12:21.851Z,95440.22
2019-01-17T04:14:48.907Z,95433.27
2019-01-17T04:17:15.933Z,95438.53
2019-01-17T04:19:42.956Z,95451.03
2019-01-17T04:22:09.981Z,95432.62
2019-01-17T04:24:39.873Z,95446.20
2019-01-17T04:27:06.909Z,95443.37
2019-01-17T04:29:33.961Z,95456.66
2019-01-17T04:32:01.005Z,95456.66
2019-01-17T04:34:28.037Z,95461.44
2019-01-17T04:36:55.088Z,95461.44
2019-01-17T04:39:22.123Z,95456.66
2019-01-17T04:41:49.143Z,95456.85
2019-01-17T04:44:16.168Z,95455.53
2019-01-17T04:46:43.218Z,95454.93
2019-01-17T04:49:10.244Z,95459.58
2019-01-17T04:51:37.278Z,95466.67
2019-01-17T04:54:04.341Z,95462.58
2019-01-17T04:56:31.384Z,95459.63
2019-01-17T04:58:58.432Z,95464.59
2019-01-17T05:01:25.467Z,95467.23
2019-01-17T05:03:53.008Z,95466.91
2019-01-17T05:06:20.016Z,95466.41
2019-01-17T05:08:47.041Z,95466.09
2019-01-17T05:11:14.070Z,95467.73
2019-01-17T05:13:41.102Z,95470.23
2019-01-17T05:16:08.164Z,95468.66
2019-01-17T05:18:35.197Z,95472.83
2019-01-17T05:21:02.220Z,95461.46
2019-01-17T05:23:29.239Z,95467.47
2019-01-17T05:25:56.276Z,95463.07
2019-01-17T05:28:23.288Z,95465.89
2019-01-17T05:30:50.332Z,95466.27
2019-01-17T05:33:17.353Z,95462.07
2019-01-17T05:35:44.715Z,95463.12
2019-01-17T05:38:11.767Z,95458.72
2019-01-17T05:40:38.822Z,95458.03
2019-01-17T05:43:05.834Z,95461.30
2019-01-17T05:45:32.874Z,95462.75
2019-01-17T05:47:59.914Z,95460.25
2019-01-17T05:50:26.968Z,95461.17
2019-01-17T05:52:54.007Z,95461.62
2019-01-17T05:55:21.062Z,95457.61
2019-01-17T05:57:48.167Z,95452.78
2019-01-17T06:00:19.417Z,95450.41
2019-01-17T06:02:46.473Z,95449.51
2019-01-17T06:05:13.712Z,95457.68
2019-01-17T06:07:40.758Z,95453.56
2019-01-17T06:10:08.900Z,95452.81
2019-01-17T06:12:35.949Z,95436.92
2019-01-17T06:15:03.913Z,95433.14
2019-01-17T06:17:30.965Z,95431.05
2019-01-17T06:19:58.005Z,95427.41
2019-01-17T06:22:25.054Z,95419.06
2019-01-17T06:24:52.065Z,95425.33
2019-01-17T06:27:19.114Z,95423.79
2019-01-17T06:29:46.137Z,95430.95
2019-01-17T06:32:13.187Z,95431.06
2019-01-17T06:34:40.238Z,95437.80
2019-01-17T06:37:07.253Z,95434.65
2019-01-17T06:39:34.289Z,95422.98
2019-01-17T06:42:01.311Z,95424.39
2019-01-17T06:44:28.349Z,95419.83
2019-01-17T06:46:55.384Z,95431.27
2019-01-17T06:49:22.421Z,95435.42
2019-01-17T06:51:49.449Z,95425.52
2019-01-17T06:54:16.496Z,95429.06
2019-01-17T06:56:43.522Z,95424.24
2019-01-17T06:59:10.566Z,95432.99
2019-01-17T07:01:37.585Z,95431.09
2019-01-17T07:04:04.609Z,95430.92
2019-01-17T07:06:31.672Z,95437.07
2019-01-17T07:08:58.705Z,95435.69
2019-01-17T07:11:25.850Z,95434.25
2019-01-17T07:13:52.893Z,95438.94
2019-01-17T07:16:20.044Z,95437.89
2019-01-17T07:18:47.090Z,95432.18
2019-01-17T07:21:14.113Z,95436.37
2019-01-17T07:23:41.160Z,95427.13
2019-01-17T07:26:08.190Z,95421.24
2019-01-17T07:28:35.248Z,95425.53
2019-01-17T07:31:02.281Z,95422.66
2019-01-17T07:33:29.303Z,95424.08
2019-01-17T07:35:56.346Z,95423.18
2019-01-17T07:38:23.437Z,95422.17
2019-01-17T07:40:50.469Z,95422.56
2019-01-17T07:43:17.497Z,95427.06
2019-01-17T07:45:44.535Z,95419.30
2019-01-17T07:48:11.558Z,95418.00
2019-01-17T07:50:38.601Z,95411.16
2019-01-17T07:53:05.628Z,95412.27
2019-01-17T07:55:32.681Z,95415.20
2019-01-17T07:57:59.736Z,95412.67
2019-01-17T08:00:26.798Z,95405.14
2019-01-17T08:02:53.848Z,95407.16
2019-01-17T08:05:20.852Z,95407.88
2019-01-17T08:07:47.942Z,95408.58
2019-01-17T08:10:16.004Z,95412.55
2019-01-17T08:12:43.033Z,95405.75
2019-01-17T08:15:10.579Z,95407.38
2019-01-17T08:17:37.611Z,95401.28
2019-01-17T08:20:07.185Z,95404.46
2019-01-17T08:22:34.215Z,95402.30
2019-01-17T08:25:01.276Z,95397.53
2019-01-17T08:27:28.315Z,95393.55
2019-01-17T08:29:55.351Z,95391.20
2019-01-17T08:32:22.400Z,95389.57
2019-01-17T08:34:49.428Z,95386.79
2019-01-17T08:37:16.460Z,95386.79
2019-01-17T08:39:43.515Z,95393.78
2019-01-17T08:42:10.586Z,95381.03
2019-01-17T08:44:37.626Z,95380.48
2019-01-17T08:47:04.688Z,95381.43
2019-01-17T08:49:31.715Z,95383.20
2019-01-17T08:51:58.793Z,95388.05
2019-01-17T08:54:25.788Z,95384.30
2019-01-17T08:56:52.851Z,95379.66
2019-01-17T08:59:19.906Z,95376.84
2019-01-17T09:01:46.956Z,95376.52
2019-01-17T09:04:13.987Z,95381.67
2019-01-17T09:06:41.036Z,95389.34
2019-01-17T09:09:08.767Z,95381.28
2019-01-17T09:11:35.783Z,95376.84
2019-01-17T09:14:03.051Z,95378.60
2019-01-17T09:16:30.083Z,95375.70
2019-01-17T09:18:57.123Z,95378.12
2019-01-17T09:21:24.157Z,95378.17
2019-01-17T09:23:51.193Z,95377.48
2019-01-17T09:26:18.252Z,95375.05
2019-01-17T09:28:45.299Z,95383.48
2019-01-17T09:31:13.128Z,95379.19
2019-01-17T09:33:40.160Z,95376.45
2019-01-17T09:36:07.207Z,95373.28
2019-01-17T09:38:34.234Z,95368.27
2019-01-17T09:41:01.279Z,95370.71
2019-01-17T09:43:28.314Z,95367.89
2019-01-17T09:45:55.336Z,95367.34
2019-01-17T09:48:22.365Z,95364.11
2019-01-17T09:50:49.383Z,95365.23
2019-01-17T09:53:16.420Z,95360.30
2019-01-17T09:55:43.461Z,95358.78
2019-01-17T09:58:10.493Z,95365.20
2019-01-17T10:00:37.542Z,95354.95
2019-01-17T10:03:04.586Z,95353.16
2019-01-17T10:05:31.624Z,95350.56
2019-01-17T10:07:58.650Z,95345.13
2019-01-17T10:10:25.998Z,95345.61
2019-01-17T10:12:53.228Z,95323.94
2019-01-17T10:15:24.084Z,95320.41
2019-01-17T10:18:44.922Z,95317.73
2019-01-17T10:22:01.155Z,95319.16
2019-01-17T10:24:54.393Z,95308.64
2019-01-17T10:28:18.714Z,95298.58
2019-01-17T10:31:10.652Z,95298.06
2019-01-17T10:33:58.602Z,95277.52
2019-01-17T10:36:54.249Z,95267.36
2019-01-17T10:40:01.601Z,95256.61
2019-01-17T10:42:51.042Z,95245.89
2019-01-17T10:46:07.911Z,95241.02
2019-01-17T10:49:12.506Z,95232.09
2019-01-17T10:52:11.478Z,95221.08
2019-01-17T10:55:44.404Z,95220.90
2019-01-17T10:58:29.404Z,95221.78
2019-01-17T11:01:26.743Z,95224.42
2019-01-17T11:04:14.656Z,95209.63
2019-01-17T11:07:26.035Z,95207.64
2019-01-17T11:10:33.134Z,95202.16
2019-01-17T11:13:24.523Z,95191.08
2019-01-17T11:16:06.116Z,95186.64
2019-01-17T11:19:15.131Z,95192.02
2019-01-17T11:22:39.382Z,95186.67
2019-01-17T11:25:24.319Z,95174.31
2019-01-17T11:28:18.609Z,95178.83
2019-01-17T11:31:29.559Z,95174.74
2019-01-17T11:34:27.613Z,95165.03
2019-01-17T11:37:47.302Z,95168.16
2019-01-17T11:40:28.900Z,95174.56
2019-01-17T11:43:43.486Z,95175.66
2019-01-17T11:46:43.207Z,95174.39
2019-01-17T11:49:37.839Z,95175.98
2019-01-17T11:52:51.401Z,95181.81
2019-01-17T11:55:46.482Z,95180.05
2019-01-17T11:58:36.103Z,95182.97
2019-01-17T12:01:17.797Z,95175.59
2019-01-17T12:04:20.215Z,95187.48
2019-01-17T12:06:47.282Z,95187.88
2019-01-17T12:09:14.317Z,95180.16
2019-01-17T12:11:41.390Z,95175.80
2019-01-17T12:14:08.438Z,95181.92
2019-01-17T12:16:35.478Z,95177.95
2019-01-17T12:19:02.543Z,95176.12
2019-01-17T12:21:29.606Z,95167.06
2019-01-17T12:23:56.825Z,95174.81
2019-01-17T12:26:23.864Z,95160.09
2019-01-17T12:28:51.010Z,95162.98
2019-01-17T12:31:18.067Z,95163.23
2019-01-17T12:33:45.112Z,95166.65
2019-01-17T12:36:14.138Z,95162.56
2019-01-17T12:38:41.175Z,95159.78
2019-01-17T12:41:10.486Z,95155.21
2019-01-17T12:43:37.568Z,95154.44
2019-01-17T12:46:04.630Z,95149.72
2019-01-17T12:48:31.674Z,95150.35
2019-01-17T12:50:58.720Z,95140.81
2019-01-17T12:53:25.793Z,95140.31
2019-01-17T12:55:52.862Z,95145.23
2019-01-17T12:58:19.939Z,95144.29
2019-01-17T13:00:47.008Z,95142.81
2019-01-17T13:03:14.085Z,95139.19
2019-01-17T13:05:41.120Z,95127.47
2019-01-17T13:08:08.186Z,95130.15
2019-01-17T13:10:35.255Z,95126.36
2019-01-17T13:13:02.351Z,95128.22
2019-01-17T13:15:29.399Z,95130.34
2019-01-17T13:17:56.469Z,95133.22
2019-01-17T13:20:23.527Z,95137.94
2019-01-17T13:22:50.599Z,95140.22
2019-01-17T13:25:19.404Z,95135.33
2019-01-17T13:27:46.476Z,95139.06
2019-01-17T13:30:15.682Z,95131.53
2019-01-17T13:32:42.820Z,95137.11
2019-01-17T13:35:09.898Z,95131.75
2019-01-17T13:37:36.930Z,95133.13
2019-01-17T13:40:06.735Z,95140.41
2019-01-17T13:42:33.771Z,95135.39
2019-01-17T13:45:00.859Z,95139.16
2019-01-17T13:47:27.901Z,95139.97
2019-01-17T13:49:54.948Z,95144.51
2019-01-17T13:52:22.013Z,95151.48
2019-01-17T13:54:49.088Z,95144.78
2019-01-17T13:57:16.167Z,95137.84
2019-01-17T13:59:43.239Z,95146.91
2019-01-17T14:02:10.305Z,95151.48
2019-01-17T14:04:37.361Z,95152.26
2019-01-17T14:07:04.429Z,95153.28
2019-01-17T14:09:31.482Z,95151.11
2019-01-17T14:11:58.556Z,95166.39
2019-01-17T14:14:25.623Z,95172.23
2019-01-17T14:16:52.773Z,95162.31
2019-01-17T14:19:19.830Z,95170.62
2019-01-17T14:21:46.879Z,95173.67
2019-01-17T14:24:13.931Z,95174.79
2019-01-17T14:26:41.063Z,95185.19
2019-01-17T14:29:08.146Z,95206.46
2019-01-17T14:31:35.190Z,95202.45
2019-01-17T14:34:02.281Z,95206.56
2019-01-17T14:36:29.353Z,95207.06
2019-01-17T14:38:59.945Z,95214.44
2019-01-17T14:41:28.869Z,95216.72
2019-01-17T14:43:55.932Z,95236.66
2019-01-17T14:46:23.020Z,95229.36
2019-01-17T14:48:50.084Z,95239.60
2019-01-17T14:51:17.150Z,95227.69
2019-01-17T14:53:44.212Z,95240.41
2019-01-17T14:56:11.272Z,95233.91
2019-01-17T14:58:38.311Z,95240.55
2019-01-17T15:01:05.378Z,95253.58
2019-01-17T15:03:32.463Z,95241.80
2019-01-17T15:05:59.520Z,95243.89
2019-01-17T15:08:26.580Z,95256.91
2019-01-17T15:10:53.624Z,95259.77
2019-01-17T15:13:20.714Z,95244.55
2019-01-17T15:15:47.768Z,95247.38
2019-01-17T15:18:14.848Z,95257.42
2019-01-17T15:20:42.390Z,95251.70
2019-01-17T15:23:10.249Z,95250.55
2019-01-17T15:25:37.294Z,95252.25
2019-01-17T15:28:05.864Z,95261.41
2019-01-17T15:30:33.018Z,95262.10
2019-01-17T15:33:00.081Z,95260.72
2019-01-17T15:35:27.143Z,95278.95
2019-01-17T15:37:54.175Z,95282.78
2019-01-17T15:40:26.227Z,95284.00
2019-01-17T15:42:53.286Z,95289.70
2019-01-17T15:45:20.333Z,95294.66
2019-01-17T15:47:47.468Z,95295.88
2019-01-17T15:50:14.618Z,95302.73
2019-01-17T15:52:41.722Z,95296.96
2019-01-17T15:55:10.049Z,95308.67
2019-01-17T15:57:37.449Z,95323.57
2019-01-17T16:00:06.305Z,95321.95
2019-01-17T16:02:33.345Z,95323.97
2019-01-17T16:05:00.376Z,95326.64
2019-01-17T16:07:27.421Z,95325.41
2019-01-17T16:09:54.509Z,95336.67
2019-01-17T16:12:21.709Z,95344.19
2019-01-17T16:14:48.765Z,95348.84
2019-01-17T16:17:15.869Z,95354.79
2019-01-17T16:19:42.962Z,95354.34
2019-01-17T16:22:10.135Z,95360.41
2019-01-17T16:24:37.245Z,95367.37
2019-01-17T16:27:04.330Z,95370.26
2019-01-17T16:29:31.389Z,95376.27
2019-01-17T16:31:58.514Z,95375.72
2019-01-17T16:34:25.631Z,95378.99
2019-01-17T16:36:52.733Z,95384.48
2019-01-17T16:39:19.860Z,95379.79
2019-01-17T16:41:46.963Z,95374.91
2019-01-17T16:44:14.058Z,95380.69
2019-01-17T16:46:41.112Z,95382.77
2019-01-17T16:49:08.172Z,95381.88
2019-01-17T16:51:35.315Z,95382.56
2019-01-17T16:54:02.432Z,95393.44
2019-01-17T16:56:29.599Z,95394.50
2019-01-17T16:58:56.714Z,95396.58
2019-01-17T17:01:23.812Z,95394.14
2019-01-17T17:03:50.933Z,95404.42
2019-01-17T17:06:18.079Z,95398.95
2019-01-17T17:08:45.210Z,95402.72
2019-01-17T17:11:12.367Z,95405.46
2019-01-17T17:13:39.486Z,95405.91
2019-01-17T17:16:06.561Z,95401.77
2019-01-17T17:18:34.835Z,95408.12
2019-01-17T17:21:01.917Z,95415.03
2019-01-17T17:23:29.068Z,95416.07
2019-01-17T17:25:56.196Z,95430.42
2019-01-17T17:28:23.341Z,95421.09
2019-01-17T17:30:50.724Z,95430.13
2019-01-17T17:33:17.857Z,95431.45
2019-01-17T17:35:44.985Z,95431.08
2019-01-17T17:38:12.151Z,95428.13
2019-01-17T17:40:39.279Z,95433.89
2019-01-17T17:43:06.449Z,95433.38
2019-01-17T17:45:33.535Z,95435.88
2019-01-17T17:48:01.397Z,95434.77
2019-01-17T17:50:29.065Z,95444.86
2019-01-17T17:52:56.174Z,95444.48
2019-01-17T17:55:23.319Z,95454.53
2019-01-17T17:57:50.700Z,95450.69
2019-01-17T18:00:36.905Z,95446.10
2019-01-17T18:03:04.059Z,95448.24
2019-01-17T18:05:31.223Z,95450.83
2019-01-17T18:07:58.341Z,95451.78
2019-01-17T18:10:25.484Z,95449.30
2019-01-17T18:12:54.136Z,95448.70
2019-01-17T18:15:21.260Z,95452.39
2019-01-17T18:17:48.442Z,95465.55
2019-01-17T18:20:16.081Z,95454.45
2019-01-17T18:22:45.447Z,95453.71
2019-01-17T18:25:12.580Z,95454.60
2019-01-17T18:27:41.505Z,95442.92
2019-01-17T18:30:12.601Z,95456.23
2019-01-17T18:32:41.576Z,95456.52
2019-01-17T18:35:09.298Z,95462.88
2019-01-17T18:37:39.321Z,95464.95
2019-01-17T18:40:08.582Z,95472.11
2019-01-17T18:42:35.764Z,95476.78
2019-01-17T18:45:05.034Z,95479.14
2019-01-17T18:47:32.233Z,95479.88
2019-01-17T18:49:59.435Z,95472.93
2019-01-17T18:52:26.635Z,95470.70
2019-01-17T18:54:54.124Z,95473.07
2019-01-17T18:57:21.434Z,95477.53
2019-01-17T18:59:51.829Z,95484.52
2019-01-17T19:02:25.281Z,95471.22
2019-01-17T19:04:54.031Z,95479.97
2019-01-17T19:07:22.226Z,95472.04
2019-01-17T19:09:51.124Z,95482.24
2019-01-17T19:12:19.464Z,95481.42
2019-01-17T19:14:47.145Z,95482.67
2019-01-17T19:17:19.542Z,95479.72
2019-01-17T19:19:49.086Z,95478.64
2019-01-17T19:22:16.955Z,95486.11
2019-01-17T19:24:44.243Z,95490.95
2019-01-17T19:27:11.991Z,95491.98
2019-01-17T19:29:40.469Z,95500.73
2019-01-17T19:32:07.735Z,95492.20
2019-01-17T19:34:36.033Z,95498.30
2019-01-17T19:37:05.884Z,95505.38
2019-01-17T19:39:33.375Z,95510.63
2019-01-17T19:42:01.208Z,95507.06
2019-01-17T19:44:29.240Z,95505.44
2019-01-17T19:47:00.787Z,95503.08
2019-01-17T19:49:31.095Z,95503.75
2019-01-17T19:51:59.934Z,95503.23
2019-01-17T19:54:28.208Z,95501.17
2019-01-17T19:56:55.972Z,95500.95
2019-01-17T19:59:23.361Z,95507.09
2019-01-17T20:01:51.227Z,95505.30
2019-01-17T20:04:21.031Z,95505.30
2019-01-17T20:06:51.233Z,95505.59
2019-01-17T20:09:19.094Z,95511.43
2019-01-17T20:11:47.534Z,95502.85
2019-01-17T20:14:14.954Z,95503.02
2019-01-17T20:16:42.302Z,95504.73
2019-01-17T20:19:13.790Z,95507.66
2019-01-17T20:21:42.911Z,95510.70
2019-01-17T20:24:11.722Z,95503.23
2019-01-17T20:26:39.043Z,95507.53
2019-01-17T20:29:06.557Z,95510.92
2019-01-17T20:31:34.123Z,95519.94
2019-01-17T20:34:01.811Z,95519.12
2019-01-17T20:36:32.295Z,95518.47
2019-01-17T20:38:59.726Z,95507.75
2019-01-17T20:41:27.024Z,95512.77
2019-01-17T20:43:54.740Z,95522.00
2019-01-17T20:46:21.987Z,95521.91
2019-01-17T20:48:49.711Z,95526.94
2019-01-17T20:51:17.188Z,95526.94
2019-01-17T20:53:44.337Z,95518.95
2019-01-17T20:56:11.509Z,95522.86
2019-01-17T20:58:42.594Z,95532.85
2019-01-17T21:01:54.223Z,95533.20
2019-01-17T21:04:21.411Z,95533.84
2019-01-17T21:06:48.534Z,95531.78
2019-01-17T21:09:15.983Z,95534.96
2019-01-17T21:11:44.138Z,95526.38
2019-01-17T21:14:11.300Z,95536.94
2019-01-17T21:16:38.443Z,95552.38
2019-01-17T21:19:08.106Z,95547.06
2019-01-17T21:21:35.524Z,95546.45
2019-01-17T21:24:02.792Z,95552.38
2019-01-17T21:26:32.886Z,95558.73
2019-01-17T21:29:00.387Z,95552.67
2019-01-17T21:31:27.514Z,95561.04
2019-01-17T21:33:54.619Z,95563.61
2019-01-17T21:36:21.756Z,95565.25
2019-01-17T21:38:48.902Z,95571.38
2019-01-17T21:41:16.043Z,95573.95
2019-01-17T21:43:43.143Z,95587.67
2019-01-17T21:46:10.296Z,95583.84
2019-01-17T21:48:37.420Z,95585.60
2019-01-17T21:51:04.574Z,95589.20
2019-01-17T21:53:31.680Z,95593.83
2019-01-17T21:55:58.825Z,95595.28
2019-01-17T21:58:25.930Z,95596.61
2019-01-17T22:00:53.062Z,95600.30
2019-01-17T22:03:20.134Z,95601.05
2019-01-17T22:05:47.195Z,95602.08
2019-01-17T22:08:14.283Z,95605.46
2019-01-17T22:10:43.523Z,95608.33
2019-01-17T22:13:10.616Z,95610.69
2019-01-17T22:15:37.683Z,95614.06
2019-01-17T22:18:04.798Z,95620.72
2019-01-17T22:20:31.894Z,95620.72
2019-01-17T22:22:58.992Z,95626.24
2019-01-17T22:25:26.046Z,95620.92
2019-01-17T22:27:53.121Z,95622.25
2019-01-17T22:30:21.969Z,95621.53
2019-01-17T22:32:49.002Z,95627.15
2019-01-17T22:35:16.052Z,95627.03
2019-01-17T22:37:43.097Z,95635.30
2019-01-17T22:40:11.456Z,95629.98
2019-01-17T22:42:38.503Z,95635.16
2019-01-17T22:45:07.892Z,95647.12
2019-01-17T22:47:34.931Z,95643.64
2019-01-17T22:50:01.986Z,95647.72
2019-01-17T22:52:29.004Z,95642.92
2019-01-17T22:54:56.048Z,95652.95
2019-01-17T22:57:23.096Z,95651.05
2019-01-17T22:59:50.130Z,95656.42
2019-01-17T23:02:17.175Z,95654.88
2019-01-17T23:04:44.212Z,95658.54
2019-01-17T23:07:11.251Z,95664.25
2019-01-17T23:09:38.289Z,95664.25
2019-01-17T23:12:05.366Z,95661.08
2019-01-17T23:14:32.405Z,95662.11
2019-01-17T23:16:59.498Z,95677.97
2019-01-17T23:19:26.531Z,95658.88
2019-01-17T23:21:53.571Z,95670.68
2019-01-17T23:24:20.623Z,95678.26
2019-01-17T23:26:47.661Z,95685.44
2019-01-17T23:29:16.063Z,95693.97
2019-01-17T23:31:43.299Z,95690.82
2019-01-17T23:34:10.347Z,95696.97
2019-01-17T23:36:37.410Z,95703.72
2019-01-17T23:39:07.444Z,95696.91
2019-01-17T23:41:34.508Z,95708.06
2019-01-17T23:44:01.539Z,95709.19
2019-01-17T23:46:28.604Z,95709.02
2019-01-17T23:48:55.637Z,95718.42
2019-01-17T23:51:22.691Z,95721.70
2019-01-17T23:53:49.710Z,95726.50
2019-01-17T23:56:16.770Z,95720.27
2019-01-17T23:58:43.794Z,95716.19
